Time;durP1;ratioP1;P1;durP2;ratioP2;P2;SDS_P1;SDS_P2;PMS_P1;PMS_P2;Temp;Humidity;BMP_temperature;BMP_pressure;BME280_temperature;BME280_humidity;BME280_pressure;Samples;Min_cycle;Max_cycle;Signal;HPM_P1;HPM_P2
2022/04/26 03:37:23;;;;;;;16.05;9.32;;;;;;;7.08;89.04;101510.97;4982475;28;20076;-66
2022/04/26 03:39:49;;;;;;;15.23;9.90;;;;;;;7.07;88.62;101512.00;5004553;28;20429;-66
2022/04/26 03:42:14;;;;;;;15.93;9.68;;;;;;;7.05;88.70;101520.41;5003851;28;20029;-66
2022/04/26 03:44:40;;;;;;;17.48;9.90;;;;;;;7.06;89.03;101513.91;5004360;28;20030;-66
2022/04/26 03:47:05;;;;;;;16.10;9.45;;;;;;;7.09;89.35;101521.69;5004443;28;20113;-66
2022/04/26 03:49:31;;;;;;;15.20;9.95;;;;;;;7.08;89.62;101520.00;5004632;28;20551;-66
2022/04/26 03:51:56;;;;;;;16.33;9.05;;;;;;;7.09;89.61;101521.69;5004227;28;20530;-66
2022/04/26 03:54:22;;;;;;;14.23;9.65;;;;;;;7.11;89.60;101522.38;5004694;28;20029;-67
2022/04/26 03:56:48;;;;;;;17.80;10.10;;;;;;;7.12;89.63;101525.94;5001360;28;20373;-66
2022/04/26 03:59:13;;;;;;;17.70;10.55;;;;;;;7.12;89.44;101525.94;5004334;28;20022;-66
2022/04/26 04:01:39;;;;;;;16.08;9.88;;;;;;;7.11;89.62;101519.63;5004026;28;20055;-66
2022/04/26 04:04:05;;;;;;;14.60;9.30;;;;;;;7.12;89.75;101528.69;5004403;28;20026;-66
2022/04/26 04:06:30;;;;;;;18.27;9.30;;;;;;;7.11;89.90;101524.25;5003224;28;20029;-66
2022/04/26 04:08:55;;;;;;;17.02;10.13;;;;;;;7.13;89.91;101527.63;5002957;28;20029;-66
2022/04/26 04:11:20;;;;;;;17.05;10.40;;;;;;;7.12;89.82;101537.72;5001374;28;20053;-66
2022/04/26 04:13:46;;;;;;;16.23;9.80;;;;;;;7.12;89.61;101534.97;5003509;28;20436;-66
2022/04/26 04:16:11;;;;;;;14.48;9.60;;;;;;;7.13;90.06;101539.41;5005194;28;20041;-66
2022/04/26 04:21:20;;;;;;;16.40;10.43;;;;;;;7.12;89.96;101536.88;5003780;28;20076;-66
2022/04/26 04:23:46;;;;;;;17.15;10.00;;;;;;;7.10;90.47;101545.28;5003079;28;20077;-66
2022/04/26 04:26:11;;;;;;;17.25;10.70;;;;;;;7.08;90.12;101544.59;5001539;28;20045;-67
2022/04/26 04:28:36;;;;;;;18.58;10.82;;;;;;;7.10;90.37;101544.44;5009751;28;20034;-66
2022/04/26 04:31:02;;;;;;;15.30;9.82;;;;;;;7.08;89.96;101544.59;5002547;28;20022;-66
2022/04/26 04:33:28;;;;;;;18.13;10.13;;;;;;;7.08;90.07;101546.47;5003197;28;20105;-67
2022/04/26 04:35:53;;;;;;;17.85;10.40;;;;;;;7.11;89.73;101557.03;5003332;28;20049;-66
2022/04/26 04:38:19;;;;;;;18.40;10.23;;;;;;;7.10;89.67;101550.72;5002338;28;20084;-67
2022/04/26 04:40:44;;;;;;;19.75;9.95;;;;;;;7.12;90.04;101556.00;5002215;28;20033;-66
2022/04/26 04:43:13;;;;;;;17.83;9.82;;;;;;;7.16;90.16;101560.03;5003240;28;20547;-61
2022/04/26 04:45:39;;;;;;;18.73;10.20;;;;;;;7.25;88.59;101564.38;5003077;28;20049;-67
2022/04/26 04:48:05;;;;;;;16.88;10.52;;;;;;;7.17;90.42;101565.31;5003256;28;20132;-66
2022/04/26 04:50:32;;;;;;;14.07;10.02;;;;;;;7.17;89.90;101565.31;5002482;28;20551;-66
2022/04/26 04:52:57;;;;;;;16.13;10.35;;;;;;;7.18;89.75;101575.19;5002707;28;20029;-66
2022/04/26 04:55:23;;;;;;;15.32;9.50;;;;;;;7.16;89.44;101573.69;5001822;28;20038;-66
2022/04/26 04:57:48;;;;;;;19.42;10.15;;;;;;;7.17;90.22;101576.22;5002983;28;20033;-66
2022/04/26 05:00:14;;;;;;;17.48;10.35;;;;;;;7.19;89.88;101582.34;5002972;28;20538;-66
2022/04/26 05:02:39;;;;;;;16.10;9.77;;;;;;;7.22;90.01;101587.44;5002661;28;20057;-63
2022/04/26 05:05:05;;;;;;;18.83;10.10;;;;;;;7.24;90.28;101585.34;5003008;28;20029;-66
2022/04/26 05:07:30;;;;;;;17.60;10.38;;;;;;;7.26;89.88;101586.03;5002562;28;20041;-66
2022/04/26 05:09:55;;;;;;;17.92;10.38;;;;;;;7.28;89.81;101603.06;5002489;28;20519;-66
2022/04/26 05:12:21;;;;;;;17.40;10.77;;;;;;;7.33;88.95;101598.91;5001036;28;20089;-66
2022/04/26 05:14:46;;;;;;;19.48;10.48;;;;;;;7.29;89.34;101596.56;5003183;28;20092;-67
2022/04/26 05:17:11;;;;;;;15.50;10.43;;;;;;;7.31;89.36;101606.47;5002169;28;20057;-67
2022/04/26 05:19:37;;;;;;;18.88;10.32;;;;;;;7.32;89.15;101605.44;5002941;28;20034;-66
2022/04/26 05:22:07;;;;;;;17.17;10.57;;;;;;;7.33;89.55;101609.84;5002313;28;20388;-66
2022/04/26 05:27:16;;;;;;;17.70;10.85;;;;;;;7.34;89.34;101604.19;5001480;28;20197;-67
2022/04/26 05:29:41;;;;;;;20.83;12.43;;;;;;;7.37;89.28;101609.28;5002500;28;20026;-67
2022/04/26 05:32:07;;;;;;;18.42;11.65;;;;;;;7.38;89.52;101619.16;5002850;28;20068;-66
2022/04/26 05:34:32;;;;;;;18.40;11.18;;;;;;;7.42;89.87;101614.19;5001616;28;20409;-67
2022/04/26 05:36:58;;;;;;;18.45;10.80;;;;;;;7.43;89.54;101611.25;5001879;28;20045;-66
2022/04/26 05:39:23;;;;;;;21.27;11.60;;;;;;;7.45;89.59;101611.03;5002028;28;20034;-66
2022/04/26 05:41:49;;;;;;;17.70;11.57;;;;;;;7.49;89.27;101623.28;5000415;28;20045;-66
2022/04/26 05:44:14;;;;;;;17.63;11.80;;;;;;;7.51;89.02;101618.50;5002789;28;20427;-67
2022/04/26 05:46:39;;;;;;;15.77;11.30;;;;;;;7.53;89.07;101619.97;5003228;28;20026;-67
2022/04/26 05:49:04;;;;;;;20.73;11.98;;;;;;;7.55;89.04;101619.78;5003254;28;20026;-67
2022/04/26 05:51:29;;;;;;;18.65;11.60;;;;;;;7.54;88.54;101629.88;5001466;28;20562;-66
2022/04/26 05:53:55;;;;;;;19.48;12.77;;;;;;;7.53;89.24;101619.13;5002604;28;20026;-66
2022/04/26 05:56:20;;;;;;;19.42;12.73;;;;;;;7.57;89.12;101631.38;5001456;28;20044;-66
2022/04/26 05:58:45;;;;;;;21.90;12.30;;;;;;;7.61;89.48;101631.88;5002881;28;20034;-67
2022/04/26 06:01:11;;;;;;;18.92;12.77;;;;;;;7.58;89.45;101629.50;5002272;28;20053;-66
2022/04/26 06:03:36;;;;;;;19.70;12.55;;;;;;;7.60;89.33;101625.53;5003008;28;20033;-67
2022/04/26 06:06:01;;;;;;;18.70;12.63;;;;;;;7.62;89.40;101628.94;5002301;28;20026;-66
2022/04/26 06:08:27;;;;;;;20.70;14.43;;;;;;;7.66;89.71;101632.97;5002399;28;20085;-66
2022/04/26 06:10:52;;;;;;;21.73;13.88;;;;;;;7.70;89.48;101637.00;5001270;28;20033;-66
2022/04/26 06:13:17;;;;;;;18.42;13.45;;;;;;;7.72;89.42;101634.94;5001972;28;20455;-66
2022/04/26 06:15:43;;;;;;;20.38;13.70;;;;;;;7.76;89.48;101643.63;5002454;28;20137;-66
2022/04/26 06:18:08;;;;;;;25.35;13.75;;;;;;;7.80;89.45;101644.91;5002569;28;20057;-66
2022/04/26 06:20:33;;;;;;;23.75;14.38;;;;;;;7.84;89.21;101645.38;5001845;28;20022;-66
2022/04/26 06:22:58;;;;;;;20.60;14.05;;;;;;;7.88;87.68;101652.16;5002523;28;20088;-66
2022/04/26 06:25:24;;;;;;;26.00;15.18;;;;;;;7.88;88.40;101650.25;5003755;28;20026;-66
2022/04/26 06:27:49;;;;;;;22.63;15.18;;;;;;;7.96;87.74;101662.97;5006187;28;20026;-66
2022/04/26 06:30:15;;;;;;;23.88;15.15;;;;;;;8.02;88.02;101662.19;5005912;28;20030;-67
2022/04/26 06:32:42;;;;;;;23.77;15.35;;;;;;;8.13;88.00;101661.69;5005914;28;20365;-67
2022/04/26 06:35:09;;;;;;;26.08;16.58;;;;;;;8.18;87.93;101661.94;5005796;28;20032;-66
2022/04/26 06:37:34;;;;;;;21.77;16.13;;;;;;;8.25;87.60;101662.00;5005999;28;20053;-67
2022/04/26 06:39:59;;;;;;;20.77;14.98;;;;;;;8.30;87.30;101663.09;5037407;28;20061;-67
2022/04/26 06:42:25;;;;;;;27.70;16.80;;;;;;;8.29;86.47;101663.31;5005307;28;20028;-67
2022/04/26 06:44:50;;;;;;;25.38;16.77;;;;;;;8.31;85.90;101666.69;5005447;28;20022;-66
2022/04/26 06:47:15;;;;;;;26.02;17.67;;;;;;;8.39;86.32;101671.22;5004992;28;20054;-66
2022/04/26 06:49:41;;;;;;;24.40;17.52;;;;;;;8.52;85.88;101676.84;5004966;28;20068;-67
2022/04/26 06:52:06;;;;;;;22.25;17.58;;;;;;;8.65;85.15;101678.81;5004623;28;20550;-67
2022/04/26 06:54:31;;;;;;;18.83;11.40;;;;;;;8.79;83.20;101678.75;5035139;28;20100;-67
2022/04/26 06:56:56;;;;;;;23.85;17.70;;;;;;;8.78;84.09;101688.00;5003910;28;20084;-66
2022/04/26 06:59:22;;;;;;;25.73;17.27;;;;;;;8.94;83.20;101681.38;5005107;28;20520;-66
2022/04/26 07:01:52;;;;;;;23.23;16.55;;;;;;;9.20;84.04;101679.88;5005073;28;20096;-66
2022/04/26 07:04:18;;;;;;;23.40;16.83;;;;;;;9.56;83.19;101680.50;5004702;28;20030;-67
2022/04/26 07:06:44;;;;;;;22.83;16.13;;;;;;;9.94;80.25;101677.28;5005264;28;20109;-67
2022/04/26 07:09:09;;;;;;;22.55;17.58;;;;;;;10.25;80.50;101684.16;5005285;28;20121;-62
2022/04/26 07:11:34;;;;;;;22.42;14.70;;;;;;;10.26;77.15;101680.34;5004036;28;20042;-68
2022/04/26 07:13:59;;;;;;;20.17;15.02;;;;;;;10.11;76.69;101685.97;5005542;28;20022;-67
2022/04/26 07:16:25;;;;;;;23.60;13.27;;;;;;;10.22;74.84;101690.84;5006400;28;20484;-67
2022/04/26 07:18:50;;;;;;;23.00;14.98;;;;;;;10.09;76.67;101686.19;5002159;28;20033;-67
2022/04/26 07:21:15;;;;;;;22.23;15.13;;;;;;;10.19;78.07;101695.91;5002023;28;20033;-67
2022/04/26 07:23:41;;;;;;;28.20;15.65;;;;;;;10.37;78.02;101690.69;5006439;28;20447;-67
2022/04/26 07:26:06;;;;;;;22.05;14.55;;;;;;;10.44;77.22;101691.56;4990722;28;20060;-67
2022/04/26 07:28:32;;;;;;;24.45;14.70;;;;;;;10.46;76.53;101699.59;4997493;28;20026;-68
2022/04/26 07:30:57;;;;;;;24.38;13.40;;;;;;;10.48;76.29;101698.31;4995588;28;20029;-67
2022/04/26 07:36:06;;;;;;;18.38;13.32;;;;;;;10.45;75.29;101704.25;4997150;28;20041;-67
2022/04/26 07:38:32;;;;;;;21.15;14.57;;;;;;;10.44;75.89;101705.31;5003218;28;20112;-67
2022/04/26 07:40:57;;;;;;;24.00;14.23;;;;;;;10.43;74.73;101702.75;5004294;28;20037;-68
2022/04/26 07:43:22;;;;;;;21.52;13.93;;;;;;;10.42;75.09;101704.66;5005114;28;20030;-67
2022/04/26 07:45:48;;;;;;;20.20;14.68;;;;;;;10.47;75.82;101712.28;5001678;28;20049;-67
2022/04/26 07:48:16;;;;;;;21.98;12.80;;;;;;;10.50;72.75;101709.13;5002506;28;20026;-67
2022/04/26 07:50:44;;;;;;;23.08;13.80;;;;;;;10.33;73.65;101716.88;4994422;28;20068;-67
2022/04/26 07:53:10;;;;;;;25.20;13.55;;;;;;;10.29;74.90;101716.47;4996917;28;20067;-67
2022/04/26 07:55:36;;;;;;;20.67;13.90;;;;;;;10.28;74.99;101717.50;4992067;28;20484;-67
2022/04/26 07:58:01;;;;;;;19.45;13.05;;;;;;;10.29;74.00;101715.59;4994047;28;20484;-67
2022/04/26 08:00:27;;;;;;;22.35;13.77;;;;;;;10.28;75.76;101717.50;4993457;28;20037;-67
2022/04/26 08:02:52;;;;;;;21.92;14.32;;;;;;;10.30;74.88;101720.91;4992491;28;20392;-67
2022/04/26 08:05:18;;;;;;;25.77;13.70;;;;;;;10.36;73.62;101725.56;4991763;28;20023;-66
2022/04/26 08:07:44;;;;;;;22.25;13.70;;;;;;;10.37;74.71;101726.41;4992747;28;20113;-67
2022/04/26 08:10:11;;;;;;;20.67;14.02;;;;;;;10.46;74.91;101733.41;4992967;28;20069;-67
2022/04/26 08:12:38;;;;;;;19.15;12.38;;;;;;;10.55;74.55;101734.06;4990716;28;20041;-67
2022/04/26 08:15:04;;;;;;;18.88;11.55;;;;;;;10.54;73.16;101737.84;4984774;28;20045;-67
2022/04/26 08:17:29;;;;;;;17.08;11.98;;;;;;;10.53;74.32;101738.91;4990383;28;20042;-68
2022/04/26 08:19:54;;;;;;;19.52;11.93;;;;;;;10.58;73.88;101747.34;4989731;28;20041;-68
2022/04/26 08:22:19;;;;;;;17.10;11.57;;;;;;;10.53;73.51;101752.63;4992179;28;20497;-68
2022/04/26 08:27:46;;;;;;;18.58;11.13;;;;;;;10.54;71.67;101754.31;4968325;28;20034;-69
2022/04/26 08:30:11;;;;;;;20.98;11.60;;;;;;;10.75;73.49;101756.91;4989270;28;20034;-69
2022/04/26 08:32:40;;;;;;;18.05;10.57;;;;;;;10.99;71.13;101751.81;5000306;28;20052;-69
2022/04/26 08:35:06;;;;;;;16.35;10.40;;;;;;;11.20;70.76;101748.84;4992439;28;20478;-67
2022/04/26 08:37:33;;;;;;;19.15;11.00;;;;;;;11.40;71.72;101757.97;4991990;28;20045;-67
2022/04/26 08:39:58;;;;;;;16.42;10.20;;;;;;;11.55;68.45;101751.34;4987958;28;20035;-67
2022/04/26 08:42:38;;;;;;;15.52;9.98;;;;;;;11.66;68.07;101765.31;4993021;28;20052;-66
2022/04/26 08:45:05;;;;;;;13.85;9.40;;;;;;;11.84;67.94;101758.28;4990289;28;20064;-69
2022/04/26 08:52:59;;;;;;;15.98;7.95;;;;;;;12.35;62.18;101747.25;4989575;28;20056;-67
2022/04/26 08:55:25;;;;;;;12.55;7.82;;;;;;;12.36;61.10;101753.59;4987252;28;21016;-67
2022/04/26 08:57:51;;;;;;;15.48;8.70;;;;;;;12.73;59.69;101747.22;4990091;28;22114;-67
2022/04/26 09:00:17;;;;;;;14.35;8.20;;;;;;;12.88;62.21;101752.44;4988998;28;20034;-67
2022/04/26 09:02:42;;;;;;;14.50;8.57;;;;;;;13.42;62.95;101758.34;4987336;28;20121;-67
2022/04/26 09:05:15;;;;;;;12.55;6.93;;;;;;;14.95;56.88;101747.03;4989963;28;20031;-67
2022/04/26 09:07:41;;;;;;;16.75;8.43;;;;;;;17.18;52.42;101748.34;4990645;28;20113;-67
2022/04/26 09:10:18;;;;;;;14.02;6.72;;;;;;;18.73;47.54;101760.19;4989820;28;20026;-68
2022/04/26 09:13:04;;;;;;;13.50;6.75;;;;;;;19.48;46.39;101763.88;4988613;28;20042;-68
2022/04/26 09:15:45;;;;;;;14.15;6.38;;;;;;;20.19;44.05;101769.03;4987923;28;20038;-69
2022/04/26 09:18:27;;;;;;;11.52;6.32;;;;;;;20.88;42.21;101765.06;4991934;28;20034;-68
2022/04/26 09:21:05;;;;;;;13.73;6.38;;;;;;;21.09;38.34;101768.72;4990832;28;20021;-68
2022/04/26 09:23:32;;;;;;;13.63;6.57;;;;;;;21.40;38.12;101770.41;4998250;28;20121;-68
2022/04/26 09:26:10;;;;;;;10.82;5.57;;;;;;;22.53;39.49;101774.53;4999423;28;20033;-68
2022/04/26 09:28:37;;;;;;;14.00;5.75;;;;;;;22.92;35.74;101772.94;5003197;28;20022;-68
2022/04/26 09:31:22;;;;;;;8.70;5.30;;;;;;;23.35;38.04;101778.72;5001119;28;20027;-67
2022/04/26 09:33:53;;;;;;;13.85;5.30;;;;;;;23.17;33.22;101786.75;5001634;28;20096;-69
2022/04/26 09:36:24;;;;;;;10.77;5.82;;;;;;;22.92;34.26;101772.94;5000660;28;20026;-68
2022/04/26 09:38:55;;;;;;;12.23;5.40;;;;;;;23.08;33.08;101790.47;5003065;28;20025;-68
2022/04/26 09:41:21;;;;;;;9.75;4.88;;;;;;;22.59;32.49;101780.94;5002245;28;20026;-68
2022/04/26 09:44:07;;;;;;;10.80;5.55;;;;;;;22.53;34.81;101788.53;5002556;28;20033;-68
2022/04/26 09:46:53;;;;;;;9.82;4.72;;;;;;;23.59;34.61;101790.00;5002367;28;20444;-68
2022/04/26 09:49:24;;;;;;;10.52;5.25;;;;;;;24.35;30.32;101794.78;5002051;28;20387;-67
2022/04/26 09:51:55;;;;;;;10.25;5.55;;;;;;;24.38;30.13;101790.53;4999797;28;20164;-67
2022/04/26 09:54:22;;;;;;;10.05;5.20;;;;;;;24.05;30.17;101791.22;5002299;28;20064;-67
2022/04/26 09:56:48;;;;;;;7.50;4.43;;;;;;;24.54;28.74;101797.66;5001511;28;20080;-66
2022/04/26 09:59:29;;;;;;;10.05;5.43;;;;;;;23.87;30.54;101797.56;5004985;28;20045;-67
2022/04/26 10:01:56;;;;;;;8.63;4.32;;;;;;;23.88;29.69;101804.06;5004353;28;20029;-67
2022/04/26 10:04:24;;;;;;;9.25;5.70;;;;;;;22.30;33.77;101802.34;5007638;28;20029;-67
2022/04/26 10:06:52;;;;;;;12.90;6.00;;;;;;;22.62;32.94;101802.78;5006245;28;20037;-67
2022/04/26 10:09:18;;;;;;;13.38;5.53;;;;;;;23.17;30.69;101808.31;5005722;28;20745;-67
2022/04/26 10:11:44;;;;;;;13.80;5.43;;;;;;;22.96;32.51;101805.69;5006726;28;20042;-67
2022/04/26 10:14:12;;;;;;;9.63;4.88;;;;;;;23.59;32.16;101804.84;5006462;28;20033;-66
2022/04/26 10:16:38;;;;;;;9.80;5.40;;;;;;;24.43;31.30;101805.38;5007078;28;20026;-67
2022/04/26 10:19:08;;;;;;;9.32;5.07;;;;;;;23.33;30.67;101812.66;5005828;28;20137;-67
2022/04/26 10:21:39;;;;;;;8.70;5.20;;;;;;;21.42;32.19;101818.47;5004639;28;20060;-67
2022/04/26 10:24:05;;;;;;;11.25;5.32;;;;;;;20.61;33.75;101824.75;5005853;28;20033;-67
2022/04/26 10:26:31;;;;;;;10.95;5.80;;;;;;;19.93;34.09;101815.50;5006458;28;20116;-67
2022/04/26 10:28:58;;;;;;;10.00;4.88;;;;;;;19.38;38.14;101825.94;5006185;28;20029;-67
2022/04/26 10:31:56;;;;;;;8.05;3.72;;;;;;;20.05;35.60;101840.38;5010617;28;20088;-66
2022/04/26 10:34:23;;;;;;;10.55;5.82;;;;;;;18.87;37.59;101833.81;4992676;28;20105;-67
2022/04/26 10:36:50;;;;;;;16.70;6.90;;;;;;;18.61;37.07;101827.09;5005551;28;20049;-66
2022/04/26 10:39:32;;;;;;;13.18;6.18;;;;;;;17.90;39.93;101834.53;5005988;28;20084;-66
2022/04/26 10:41:59;;;;;;;9.15;5.55;;;;;;;17.50;43.33;101829.97;5004334;28;20021;-65
2022/04/26 10:44:27;;;;;;;8.90;5.50;;;;;;;17.27;41.42;101830.13;5005044;28;20034;-66
2022/04/26 10:46:52;;;;;;;;;;;;;;;17.45;41.51;101838.22;5006959;28;20661;-65
2022/04/26 10:49:24;;;;;;;10.97;6.00;;;;;;;17.01;43.10;101839.94;5006526;28;19923;-66
2022/04/26 10:51:55;;;;;;;9.52;5.63;;;;;;;17.15;41.40;101835.78;5004213;28;20357;-65
2022/04/26 10:54:45;;;;;;;9.18;5.20;;;;;;;17.06;40.70;101840.03;5004626;28;20045;-65
2022/04/26 10:57:10;;;;;;;12.27;6.32;;;;;;;16.82;41.16;101847.63;5006633;28;20029;-66
2022/04/26 10:59:40;;;;;;;12.25;6.60;;;;;;;16.70;41.87;101846.81;5004772;28;20072;-65
2022/04/26 11:02:10;;;;;;;10.50;5.90;;;;;;;16.53;41.33;101852.31;5005899;28;20116;-67
2022/04/26 11:04:35;;;;;;;10.23;6.60;;;;;;;16.72;44.70;101850.22;5006084;28;20192;-66
2022/04/26 11:07:12;;;;;;;10.60;6.45;;;;;;;16.99;43.39;101844.91;5005595;28;20037;-66
2022/04/26 11:09:49;;;;;;;10.85;6.90;;;;;;;17.25;43.58;101846.22;5001811;28;20137;-66
2022/04/26 11:12:17;;;;;;;11.02;6.82;;;;;;;17.52;43.27;101846.38;5004399;28;20049;-65
2022/04/26 11:14:45;;;;;;;9.57;6.47;;;;;;;17.86;40.67;101844.47;5005645;28;20087;-66
2022/04/26 11:17:10;;;;;;;12.20;6.60;;;;;;;18.02;42.03;101851.91;5005796;28;20033;-65
2022/04/26 11:19:39;;;;;;;10.82;6.90;;;;;;;17.98;39.90;101852.69;5006402;28;20370;-66
2022/04/26 11:22:05;;;;;;;10.77;6.40;;;;;;;18.00;42.00;101845.78;5004040;28;20112;-66
2022/04/26 11:29:59;;;;;;;12.38;6.80;;;;;;;17.71;40.43;101841.41;4985829;28;20053;-66
2022/04/26 11:32:29;;;;;;;12.35;7.15;;;;;;;17.18;42.07;101838.03;4993955;28;20599;-66
2022/04/26 11:34:54;;;;;;;13.15;7.70;;;;;;;17.11;43.36;101843.75;5003680;28;20515;-66
2022/04/26 11:37:20;;;;;;;9.93;6.80;;;;;;;17.19;42.34;101842.50;5004004;28;20034;-66
2022/04/26 11:39:45;;;;;;;9.73;6.25;;;;;;;17.66;40.56;101841.34;5003803;28;20624;-65
2022/04/26 11:42:11;;;;;;;14.07;7.00;;;;;;;17.76;41.01;101844.31;4991570;28;20037;-65
2022/04/26 11:44:37;;;;;;;11.50;6.50;;;;;;;17.95;40.29;101848.50;4991898;28;20033;-66
2022/04/26 11:47:02;;;;;;;12.18;6.40;;;;;;;18.10;39.38;101843.16;4990788;28;20510;-66
2022/04/26 11:49:40;;;;;;;9.27;6.25;;;;;;;18.06;40.29;101849.47;4991942;28;20057;-66
2022/04/26 11:52:06;;;;;;;9.23;6.55;;;;;;;17.76;38.45;101855.41;4993506;28;20124;-66
2022/04/26 11:54:36;;;;;;;10.27;6.93;;;;;;;17.77;38.83;101854.31;5002162;28;20116;-66
2022/04/26 11:57:01;;;;;;;10.05;6.50;;;;;;;17.86;40.70;101850.00;5002318;28;20029;-67
2022/04/26 11:59:26;;;;;;;10.18;6.43;;;;;;;17.91;40.54;101852.88;4982570;28;20038;-66
2022/04/26 12:01:53;;;;;;;12.10;7.05;;;;;;;17.91;40.71;101858.44;5000857;28;20571;-66
2022/04/26 12:04:18;;;;;;;8.82;5.95;;;;;;;17.81;39.53;101855.50;5002125;28;20103;-67
2022/04/26 12:06:44;;;;;;;10.02;6.50;;;;;;;17.66;39.44;101861.63;5002505;28;20025;-66
2022/04/26 12:09:12;;;;;;;9.52;5.65;;;;;;;17.28;36.44;101854.88;5002515;28;20365;-66
2022/04/26 12:11:38;;;;;;;8.55;5.78;;;;;;;17.13;39.93;101857.38;5002728;28;20038;-66
2022/04/26 12:14:11;;;;;;;10.60;6.03;;;;;;;17.22;39.90;101860.59;5002768;28;20547;-66
2022/04/26 12:16:41;;;;;;;13.80;6.45;;;;;;;17.24;42.08;101856.47;5004842;28;20038;-65
2022/04/26 12:19:06;;;;;;;9.30;6.22;;;;;;;17.22;39.95;101855.03;5004896;28;20070;-66
2022/04/26 12:21:48;;;;;;;7.57;5.35;;;;;;;17.38;39.33;101859.75;5002504;28;20057;-65
2022/04/26 12:24:21;;;;;;;8.68;5.80;;;;;;;17.07;37.50;101853.66;4997454;28;20040;-66
2022/04/26 12:26:57;;;;;;;9.57;5.80;;;;;;;17.25;40.38;101852.59;5001685;28;20041;-67
2022/04/26 12:29:28;;;;;;;10.48;6.60;;;;;;;17.83;41.17;101856.06;5002015;28;20030;-65
2022/04/26 12:31:53;;;;;;;7.97;5.10;;;;;;;18.35;40.19;101847.38;5003750;28;20049;-66
2022/04/26 12:34:24;;;;;;;9.00;5.53;;;;;;;18.19;37.96;101846.31;5001775;28;20025;-67
2022/04/26 12:36:53;;;;;;;7.97;5.70;;;;;;;18.25;38.92;101853.63;5002040;28;20133;-67
2022/04/26 12:39:23;;;;;;;8.20;5.22;;;;;;;18.46;35.94;101854.75;4995461;28;20408;-68
2022/04/26 12:41:49;;;;;;;9.95;5.70;;;;;;;18.26;37.46;101868.38;4996027;28;20412;-66
2022/04/26 12:44:15;;;;;;;11.20;6.28;;;;;;;17.92;37.06;101865.66;4987008;28;20045;-67
2022/04/26 12:50:27;;;;;;;12.02;6.07;;;;;;;17.85;38.42;101859.44;4992342;28;20030;-67
2022/04/26 12:52:30;;;;;;;11.32;5.85;;;;;;;18.27;38.81;101854.22;4992336;28;20103;-66
2022/04/26 12:54:55;;;;;;;;;;;;;;;18.73;39.16;101862.31;4995725;28;20025;-66
2022/04/26 12:57:21;;;;;;;10.55;6.20;;;;;;;18.60;38.77;101856.03;4993434;28;19925;-67
2022/04/26 12:59:46;;;;;;;10.75;5.85;;;;;;;18.74;39.71;101862.06;4987195;28;20041;-67
2022/04/26 13:02:12;;;;;;;9.18;5.80;;;;;;;18.59;39.09;101848.75;4988123;28;20104;-66
2022/04/26 13:04:38;;;;;;;8.45;5.25;;;;;;;18.41;38.34;101852.72;4988114;28;20453;-66
2022/04/26 13:07:03;;;;;;;10.43;5.65;;;;;;;18.41;38.39;101849.94;4988160;28;20057;-67
2022/04/26 13:09:28;;;;;;;7.05;5.10;;;;;;;18.41;37.78;101849.13;4993368;28;20291;-66
2022/04/26 13:11:54;;;;;;;10.00;5.40;;;;;;;18.30;38.32;101847.31;4988369;28;20120;-67
2022/04/26 13:14:19;;;;;;;10.52;6.07;;;;;;;18.25;39.31;101848.06;4993263;28;20523;-67
2022/04/26 13:16:44;;;;;;;11.27;5.95;;;;;;;18.54;40.12;101848.69;4987460;28;20504;-66
2022/04/26 13:19:10;;;;;;;8.18;5.38;;;;;;;18.57;40.42;101850.13;4990559;28;20195;-66
2022/04/26 13:21:35;;;;;;;10.10;5.32;;;;;;;18.20;37.99;101844.34;4995261;28;20396;-67
2022/04/26 13:24:02;;;;;;;9.40;5.63;;;;;;;17.63;38.18;101851.00;4988562;28;20026;-67
2022/04/26 13:26:28;;;;;;;9.00;5.50;;;;;;;17.80;39.57;101857.44;4990050;28;20630;-66
2022/04/26 13:28:53;;;;;;;12.88;6.28;;;;;;;17.48;39.69;101851.59;4988328;28;20022;-66
2022/04/26 13:31:18;;;;;;;11.05;6.03;;;;;;;17.71;39.86;101855.31;4989229;28;20033;-67
2022/04/26 13:33:45;;;;;;;10.63;5.75;;;;;;;18.07;41.45;101854.78;4991351;28;20037;-67
2022/04/26 13:36:10;;;;;;;8.35;5.22;;;;;;;17.74;38.56;101857.59;4995956;28;20072;-66
2022/04/26 13:38:35;;;;;;;9.93;5.65;;;;;;;17.77;40.58;101857.09;4998778;28;20038;-66
2022/04/26 13:41:01;;;;;;;12.27;5.72;;;;;;;17.84;39.73;101852.19;4999529;28;20069;-67
2022/04/26 13:43:26;;;;;;;9.80;5.97;;;;;;;17.99;40.03;101854.34;5002438;28;20055;-66
2022/04/26 13:45:51;;;;;;;11.60;5.80;;;;;;;18.18;40.33;101850.19;5002817;28;20428;-66
2022/04/26 13:48:17;;;;;;;9.40;5.70;;;;;;;18.30;40.27;101855.66;5002244;28;20029;-67
2022/04/26 13:50:43;;;;;;;10.70;5.50;;;;;;;18.30;38.96;101855.66;5002067;28;20022;-66
2022/04/26 13:53:08;;;;;;;9.98;5.68;;;;;;;18.42;39.89;101850.78;5003834;28;20599;-66
2022/04/26 13:55:33;;;;;;;10.07;5.88;;;;;;;18.47;38.56;101859.19;5001920;28;20029;-67
2022/04/26 13:58:00;;;;;;;9.27;5.97;;;;;;;18.66;39.69;101860.56;5002870;28;20396;-67
2022/04/26 14:00:26;;;;;;;9.05;5.40;;;;;;;18.71;39.33;101857.03;5003169;28;20072;-66
2022/04/26 14:02:51;;;;;;;12.65;6.50;;;;;;;18.47;38.32;101848.06;5003015;28;20473;-67
2022/04/26 14:05:17;;;;;;;9.00;5.30;;;;;;;18.09;39.01;101865.63;5001960;28;20034;-67
2022/04/26 14:07:44;;;;;;;8.43;5.10;;;;;;;17.59;37.31;101861.81;5001870;28;20127;-67
2022/04/26 14:10:10;;;;;;;9.82;5.03;;;;;;;17.67;40.22;101859.69;5000614;28;20030;-67
2022/04/26 14:12:36;;;;;;;11.07;6.18;;;;;;;17.74;38.39;101854.81;5002428;28;20515;-66
2022/04/26 14:23:13;;;;;;;9.23;5.30;;;;;;;17.48;38.01;101870.19;4997549;28;20123;-65
2022/04/26 14:25:39;;;;;;;8.80;5.90;;;;;;;17.14;39.46;101864.63;5000187;28;20068;-65
2022/04/26 14:28:05;;;;;;;10.60;5.30;;;;;;;17.41;40.77;101869.53;5000110;28;20418;-66
2022/04/26 14:30:30;;;;;;;12.15;5.55;;;;;;;17.17;38.69;101871.59;4997781;28;20447;-65
2022/04/26 14:32:55;;;;;;;9.07;5.57;;;;;;;16.79;39.41;101878.66;5000757;28;20022;-65
2022/04/26 14:35:21;;;;;;;10.67;5.47;;;;;;;16.55;40.37;101884.25;5000053;28;20038;-66
2022/04/26 14:37:46;;;;;;;10.85;6.13;;;;;;;16.48;40.83;101875.22;5000100;28;20315;-65
2022/04/26 14:40:12;;;;;;;9.27;5.30;;;;;;;16.29;42.32;101877.31;5001540;28;20057;-66
2022/04/26 14:42:38;;;;;;;9.90;5.57;;;;;;;16.09;42.39;101886.00;4998684;28;20368;-66
2022/04/26 14:45:04;;;;;;;12.40;5.70;;;;;;;16.10;42.68;101886.84;5001422;28;20026;-66
2022/04/26 14:47:29;;;;;;;11.00;6.05;;;;;;;16.09;41.22;101883.25;5005721;28;20416;-66
2022/04/26 14:49:57;;;;;;;10.77;6.10;;;;;;;16.01;43.65;101880.81;5005441;28;20044;-66
2022/04/26 14:52:22;;;;;;;10.75;5.57;;;;;;;15.98;42.68;101889.66;5004865;28;20114;-66
2022/04/26 14:54:48;;;;;;;8.68;5.88;;;;;;;15.89;42.45;101888.31;5005112;28;20142;-66
2022/04/26 14:57:17;;;;;;;8.70;5.47;;;;;;;15.79;42.76;101890.84;5005693;28;20064;-66
2022/04/26 14:59:46;;;;;;;9.98;5.80;;;;;;;15.72;42.80;101890.13;5004336;28;20037;-66
2022/04/26 15:02:12;;;;;;;11.85;5.50;;;;;;;15.75;43.36;101892.41;5001982;28;20033;-66
2022/04/26 15:04:38;;;;;;;10.85;5.88;;;;;;;15.64;41.64;101890.47;5005841;28;20576;-66
2022/04/26 15:07:04;;;;;;;11.57;5.63;;;;;;;15.53;41.81;101886.56;5004617;28;20030;-66
2022/04/26 15:09:45;;;;;;;10.55;5.93;;;;;;;15.53;42.06;101887.41;5002854;28;20641;-66
2022/04/26 15:17:40;;;;;;;10.90;5.70;;;;;;;15.76;41.26;101894.06;5003255;28;20053;-64
2022/04/26 15:20:06;;;;;;;9.57;5.32;;;;;;;15.70;41.34;101881.19;5003606;28;20408;-66
2022/04/26 15:22:32;;;;;;;9.93;5.28;;;;;;;15.67;39.97;101888.06;5004808;28;20037;-67
2022/04/26 15:24:57;;;;;;;7.88;4.78;;;;;;;15.80;40.09;101887.81;5005364;28;20129;-66
2022/04/26 15:27:23;;;;;;;8.52;5.20;;;;;;;15.85;39.96;101883.50;5005942;28;20034;-66
2022/04/26 15:29:49;;;;;;;8.73;5.07;;;;;;;15.76;40.33;101888.53;5006280;28;20539;-66
2022/04/26 15:32:14;;;;;;;11.30;5.53;;;;;;;15.66;39.90;101877.22;5004726;28;20045;-66
2022/04/26 15:34:40;;;;;;;8.20;5.65;;;;;;;15.69;41.73;101880.34;5004594;28;20392;-66